sensor_id;sensor_type;location;lat;lon;timestamp;temperature;humidity
66184;DHT22;52989;48.796;9.806;2023-07-13T00:02:08;18.60;92.90
66184;DHT22;52989;48.796;9.806;2023-07-13T00:04:34;18.60;93.30
66184;DHT22;52989;48.796;9.806;2023-07-13T00:06:59;18.60;93.80
66184;DHT22;52989;48.796;9.806;2023-07-13T00:09:25;18.50;94.20
66184;DHT22;52989;48.796;9.806;2023-07-13T00:11:51;18.50;94.50
66184;DHT22;52989;48.796;9.806;2023-07-13T00:14:17;18.30;94.90
66184;DHT22;52989;48.796;9.806;2023-07-13T00:16:42;18.40;95.30
66184;DHT22;52989;48.796;9.806;2023-07-13T00:19:09;18.40;95.20
66184;DHT22;52989;48.796;9.806;2023-07-13T00:21:35;18.30;95.50
66184;DHT22;52989;48.796;9.806;2023-07-13T00:24:00;18.10;96.10
66184;DHT22;52989;48.796;9.806;2023-07-13T00:26:26;18.00;96.30
66184;DHT22;52989;48.796;9.806;2023-07-13T00:28:51;18.00;96.60
66184;DHT22;52989;48.796;9.806;2023-07-13T00:31:17;18.10;96.30
66184;DHT22;52989;48.796;9.806;2023-07-13T00:33:43;18.10;96.40
66184;DHT22;52989;48.796;9.806;2023-07-13T00:36:09;18.50;95.20
66184;DHT22;52989;48.796;9.806;2023-07-13T00:38:34;18.70;95.10
66184;DHT22;52989;48.796;9.806;2023-07-13T00:41:00;18.70;94.70
66184;DHT22;52989;48.796;9.806;2023-07-13T00:43:26;18.70;94.20
66184;DHT22;52989;48.796;9.806;2023-07-13T00:48:21;18.60;94.90
66184;DHT22;52989;48.796;9.806;2023-07-13T00:50:48;18.30;95.30
66184;DHT22;52989;48.796;9.806;2023-07-13T00:53:15;18.10;95.80
66184;DHT22;52989;48.796;9.806;2023-07-13T00:55:41;18.00;95.90
66184;DHT22;52989;48.796;9.806;2023-07-13T00:58:07;18.00;95.60
66184;DHT22;52989;48.796;9.806;2023-07-13T01:00:33;18.10;95.30
66184;DHT22;52989;48.796;9.806;2023-07-13T01:02:59;18.20;95.30
66184;DHT22;52989;48.796;9.806;2023-07-13T01:05:30;18.60;93.10
66184;DHT22;52989;48.796;9.806;2023-07-13T01:07:57;18.80;92.90
66184;DHT22;52989;48.796;9.806;2023-07-13T01:10:23;18.80;92.80
66184;DHT22;52989;48.796;9.806;2023-07-13T01:12:49;18.90;92.80
66184;DHT22;52989;48.796;9.806;2023-07-13T01:17:59;18.70;93.90
66184;DHT22;52989;48.796;9.806;2023-07-13T01:20:24;18.80;93.20
66184;DHT22;52989;48.796;9.806;2023-07-13T01:22:50;18.70;94.20
66184;DHT22;52989;48.796;9.806;2023-07-13T01:25:16;18.70;93.70
66184;DHT22;52989;48.796;9.806;2023-07-13T01:27:41;18.60;94.50
66184;DHT22;52989;48.796;9.806;2023-07-13T01:30:07;18.60;93.90
66184;DHT22;52989;48.796;9.806;2023-07-13T01:32:32;18.70;93.00
66184;DHT22;52989;48.796;9.806;2023-07-13T01:34:59;18.80;92.70
66184;DHT22;52989;48.796;9.806;2023-07-13T01:37:25;18.80;92.70
66184;DHT22;52989;48.796;9.806;2023-07-13T01:39:51;18.80;92.60
66184;DHT22;52989;48.796;9.806;2023-07-13T01:42:17;18.70;93.00
66184;DHT22;52989;48.796;9.806;2023-07-13T01:44:42;18.70;92.50
66184;DHT22;52989;48.796;9.806;2023-07-13T01:47:08;18.70;91.80
66184;DHT22;52989;48.796;9.806;2023-07-13T01:49:34;18.60;91.90
66184;DHT22;52989;48.796;9.806;2023-07-13T01:51:59;18.60;91.30
66184;DHT22;52989;48.796;9.806;2023-07-13T01:54:24;18.70;91.80
66184;DHT22;52989;48.796;9.806;2023-07-13T01:56:50;18.60;91.50
66184;DHT22;52989;48.796;9.806;2023-07-13T01:59:15;18.50;92.30
66184;DHT22;52989;48.796;9.806;2023-07-13T02:01:41;18.60;92.70
66184;DHT22;52989;48.796;9.806;2023-07-13T02:04:06;18.40;92.30
66184;DHT22;52989;48.796;9.806;2023-07-13T02:06:32;18.30;92.00
66184;DHT22;52989;48.796;9.806;2023-07-13T02:08:58;18.20;92.30
66184;DHT22;52989;48.796;9.806;2023-07-13T02:11:24;18.10;93.10
66184;DHT22;52989;48.796;9.806;2023-07-13T02:13:50;18.10;92.20
66184;DHT22;52989;48.796;9.806;2023-07-13T02:16:15;18.20;92.60
66184;DHT22;52989;48.796;9.806;2023-07-13T02:18:41;18.00;92.70
66184;DHT22;52989;48.796;9.806;2023-07-13T02:21:06;17.80;93.00
66184;DHT22;52989;48.796;9.806;2023-07-13T02:23:32;18.00;92.80
66184;DHT22;52989;48.796;9.806;2023-07-13T02:25:58;17.90;93.10
66184;DHT22;52989;48.796;9.806;2023-07-13T02:28:24;17.80;93.40
66184;DHT22;52989;48.796;9.806;2023-07-13T02:30:49;17.80;93.50
66184;DHT22;52989;48.796;9.806;2023-07-13T02:33:15;17.70;93.50
66184;DHT22;52989;48.796;9.806;2023-07-13T02:35:41;17.80;93.40
66184;DHT22;52989;48.796;9.806;2023-07-13T02:38:06;17.70;93.90
66184;DHT22;52989;48.796;9.806;2023-07-13T02:40:32;17.70;93.00
66184;DHT22;52989;48.796;9.806;2023-07-13T02:42:59;17.60;93.20
66184;DHT22;52989;48.796;9.806;2023-07-13T02:45:25;17.70;93.90
66184;DHT22;52989;48.796;9.806;2023-07-13T02:47:50;17.50;94.40
66184;DHT22;52989;48.796;9.806;2023-07-13T02:50:16;17.50;94.40
66184;DHT22;52989;48.796;9.806;2023-07-13T02:52:42;17.40;94.70
66184;DHT22;52989;48.796;9.806;2023-07-13T02:55:07;17.30;94.60
66184;DHT22;52989;48.796;9.806;2023-07-13T02:57:33;17.10;95.60
66184;DHT22;52989;48.796;9.806;2023-07-13T02:59:59;17.10;95.40
66184;DHT22;52989;48.796;9.806;2023-07-13T03:02:24;17.00;95.50
66184;DHT22;52989;48.796;9.806;2023-07-13T03:04:50;16.70;95.90
66184;DHT22;52989;48.796;9.806;2023-07-13T03:07:15;16.70;95.90
66184;DHT22;52989;48.796;9.806;2023-07-13T03:09:41;16.70;96.30
66184;DHT22;52989;48.796;9.806;2023-07-13T03:12:06;16.70;96.10
66184;DHT22;52989;48.796;9.806;2023-07-13T03:14:32;17.00;95.00
66184;DHT22;52989;48.796;9.806;2023-07-13T03:16:58;17.20;95.40
66184;DHT22;52989;48.796;9.806;2023-07-13T03:19:23;17.20;94.80
66184;DHT22;52989;48.796;9.806;2023-07-13T03:21:49;17.00;95.10
66184;DHT22;52989;48.796;9.806;2023-07-13T03:24:15;16.80;95.60
66184;DHT22;52989;48.796;9.806;2023-07-13T03:26:40;16.70;95.70
66184;DHT22;52989;48.796;9.806;2023-07-13T03:29:06;16.60;96.10
66184;DHT22;52989;48.796;9.806;2023-07-13T03:31:33;16.30;96.90
66184;DHT22;52989;48.796;9.806;2023-07-13T03:33:59;16.20;97.70
66184;DHT22;52989;48.796;9.806;2023-07-13T03:36:25;15.90;98.00
66184;DHT22;52989;48.796;9.806;2023-07-13T03:38:53;15.90;98.00
66184;DHT22;52989;48.796;9.806;2023-07-13T03:41:19;15.90;98.00
66184;DHT22;52989;48.796;9.806;2023-07-13T03:43:45;15.90;98.20
66184;DHT22;52989;48.796;9.806;2023-07-13T03:46:10;16.00;97.50
66184;DHT22;52989;48.796;9.806;2023-07-13T03:48:36;16.00;97.10
66184;DHT22;52989;48.796;9.806;2023-07-13T03:51:01;16.10;97.10
66184;DHT22;52989;48.796;9.806;2023-07-13T03:53:27;16.20;96.90
66184;DHT22;52989;48.796;9.806;2023-07-13T03:55:52;16.30;96.80
66184;DHT22;52989;48.796;9.806;2023-07-13T03:58:25;16.40;96.50
66184;DHT22;52989;48.796;9.806;2023-07-13T04:00:52;16.40;96.70
66184;DHT22;52989;48.796;9.806;2023-07-13T04:03:17;16.30;96.60
66184;DHT22;52989;48.796;9.806;2023-07-13T04:05:43;16.30;96.60
66184;DHT22;52989;48.796;9.806;2023-07-13T04:08:08;16.30;97.30
66184;DHT22;52989;48.796;9.806;2023-07-13T04:10:34;16.30;97.70
66184;DHT22;52989;48.796;9.806;2023-07-13T04:12:59;16.10;98.00
66184;DHT22;52989;48.796;9.806;2023-07-13T04:15:25;16.00;98.00
66184;DHT22;52989;48.796;9.806;2023-07-13T04:17:51;16.10;98.00
66184;DHT22;52989;48.796;9.806;2023-07-13T04:20:16;16.20;97.90
66184;DHT22;52989;48.796;9.806;2023-07-13T04:22:42;16.40;97.90
66184;DHT22;52989;48.796;9.806;2023-07-13T04:25:07;16.50;98.10
66184;DHT22;52989;48.796;9.806;2023-07-13T04:27:33;16.40;98.30
66184;DHT22;52989;48.796;9.806;2023-07-13T04:29:58;16.40;98.40
66184;DHT22;52989;48.796;9.806;2023-07-13T04:32:24;16.30;98.00
66184;DHT22;52989;48.796;9.806;2023-07-13T04:34:49;16.40;99.30
66184;DHT22;52989;48.796;9.806;2023-07-13T04:37:18;16.30;98.90
66184;DHT22;52989;48.796;9.806;2023-07-13T04:39:43;16.20;98.60
66184;DHT22;52989;48.796;9.806;2023-07-13T04:42:09;16.20;98.90
66184;DHT22;52989;48.796;9.806;2023-07-13T04:44:34;16.30;98.70
66184;DHT22;52989;48.796;9.806;2023-07-13T04:47:00;16.40;98.50
66184;DHT22;52989;48.796;9.806;2023-07-13T04:49:25;16.40;97.90
66184;DHT22;52989;48.796;9.806;2023-07-13T04:51:51;16.40;98.10
66184;DHT22;52989;48.796;9.806;2023-07-13T04:54:16;16.40;98.50
66184;DHT22;52989;48.796;9.806;2023-07-13T04:56:42;16.60;98.20
66184;DHT22;52989;48.796;9.806;2023-07-13T04:59:07;16.60;98.40
66184;DHT22;52989;48.796;9.806;2023-07-13T05:01:33;16.70;99.10
66184;DHT22;52989;48.796;9.806;2023-07-13T05:03:58;16.90;97.00
66184;DHT22;52989;48.796;9.806;2023-07-13T05:06:25;17.00;98.80
66184;DHT22;52989;48.796;9.806;2023-07-13T05:08:50;17.00;98.70
66184;DHT22;52989;48.796;9.806;2023-07-13T05:11:17;17.00;98.30
66184;DHT22;52989;48.796;9.806;2023-07-13T05:13:43;17.10;96.90
66184;DHT22;52989;48.796;9.806;2023-07-13T05:16:09;17.00;97.80
66184;DHT22;52989;48.796;9.806;2023-07-13T05:18:35;17.10;98.60
66184;DHT22;52989;48.796;9.806;2023-07-13T05:21:10;17.10;98.70
66184;DHT22;52989;48.796;9.806;2023-07-13T05:23:36;17.10;98.90
66184;DHT22;52989;48.796;9.806;2023-07-13T05:26:02;17.00;97.40
66184;DHT22;52989;48.796;9.806;2023-07-13T05:28:27;17.00;97.50
66184;DHT22;52989;48.796;9.806;2023-07-13T05:30:53;17.10;96.90
66184;DHT22;52989;48.796;9.806;2023-07-13T05:33:19;17.20;96.80
66184;DHT22;52989;48.796;9.806;2023-07-13T05:35:45;17.20;96.90
66184;DHT22;52989;48.796;9.806;2023-07-13T05:38:11;17.60;96.30
66184;DHT22;52989;48.796;9.806;2023-07-13T05:40:37;17.50;96.30
66184;DHT22;52989;48.796;9.806;2023-07-13T05:43:02;17.50;96.50
66184;DHT22;52989;48.796;9.806;2023-07-13T05:45:28;17.30;96.70
66184;DHT22;52989;48.796;9.806;2023-07-13T05:47:53;17.30;96.70
66184;DHT22;52989;48.796;9.806;2023-07-13T05:50:19;17.40;98.00
66184;DHT22;52989;48.796;9.806;2023-07-13T05:52:44;17.30;98.10
66184;DHT22;52989;48.796;9.806;2023-07-13T05:55:10;17.40;98.40
66184;DHT22;52989;48.796;9.806;2023-07-13T05:57:35;17.50;98.10
66184;DHT22;52989;48.796;9.806;2023-07-13T06:00:00;17.50;98.40
66184;DHT22;52989;48.796;9.806;2023-07-13T06:02:27;17.60;97.50
66184;DHT22;52989;48.796;9.806;2023-07-13T06:04:52;17.70;97.90
66184;DHT22;52989;48.796;9.806;2023-07-13T06:07:18;17.80;97.80
66184;DHT22;52989;48.796;9.806;2023-07-13T06:09:43;17.90;96.80
66184;DHT22;52989;48.796;9.806;2023-07-13T06:12:09;17.90;96.60
66184;DHT22;52989;48.796;9.806;2023-07-13T06:14:34;18.00;95.40
66184;DHT22;52989;48.796;9.806;2023-07-13T06:17:00;18.20;94.40
66184;DHT22;52989;48.796;9.806;2023-07-13T06:19:25;18.10;94.20
66184;DHT22;52989;48.796;9.806;2023-07-13T06:21:51;18.20;94.10
66184;DHT22;52989;48.796;9.806;2023-07-13T06:24:16;18.10;93.50
66184;DHT22;52989;48.796;9.806;2023-07-13T06:26:42;18.20;93.10
66184;DHT22;52989;48.796;9.806;2023-07-13T06:29:07;18.50;93.50
66184;DHT22;52989;48.796;9.806;2023-07-13T06:31:32;18.80;93.40
66184;DHT22;52989;48.796;9.806;2023-07-13T06:33:58;18.70;92.20
66184;DHT22;52989;48.796;9.806;2023-07-13T06:36:23;18.70;90.80
66184;DHT22;52989;48.796;9.806;2023-07-13T06:38:49;18.70;91.70
66184;DHT22;52989;48.796;9.806;2023-07-13T06:41:14;18.50;91.70
66184;DHT22;52989;48.796;9.806;2023-07-13T06:43:40;18.30;92.00
66184;DHT22;52989;48.796;9.806;2023-07-13T06:46:05;18.30;92.60
66184;DHT22;52989;48.796;9.806;2023-07-13T06:48:31;18.20;92.60
66184;DHT22;52989;48.796;9.806;2023-07-13T06:50:56;18.10;92.10
66184;DHT22;52989;48.796;9.806;2023-07-13T06:53:22;18.20;91.60
66184;DHT22;52989;48.796;9.806;2023-07-13T06:55:48;18.30;92.40
66184;DHT22;52989;48.796;9.806;2023-07-13T06:58:15;18.80;91.10
66184;DHT22;52989;48.796;9.806;2023-07-13T07:00:41;18.90;90.70
66184;DHT22;52989;48.796;9.806;2023-07-13T07:03:06;19.10;90.60
66184;DHT22;52989;48.796;9.806;2023-07-13T07:05:32;18.90;88.90
66184;DHT22;52989;48.796;9.806;2023-07-13T07:07:58;19.00;88.60
66184;DHT22;52989;48.796;9.806;2023-07-13T07:10:23;18.80;90.90
66184;DHT22;52989;48.796;9.806;2023-07-13T07:12:49;18.70;90.90
66184;DHT22;52989;48.796;9.806;2023-07-13T07:15:14;18.90;91.70
66184;DHT22;52989;48.796;9.806;2023-07-13T07:17:40;19.00;91.80
66184;DHT22;52989;48.796;9.806;2023-07-13T07:20:05;18.80;91.20
66184;DHT22;52989;48.796;9.806;2023-07-13T07:22:31;18.70;91.80
66184;DHT22;52989;48.796;9.806;2023-07-13T07:24:57;18.90;91.40
66184;DHT22;52989;48.796;9.806;2023-07-13T07:27:23;18.60;90.90
66184;DHT22;52989;48.796;9.806;2023-07-13T07:29:48;18.50;91.10
66184;DHT22;52989;48.796;9.806;2023-07-13T07:32:14;18.70;91.80
66184;DHT22;52989;48.796;9.806;2023-07-13T07:34:39;18.60;91.40
66184;DHT22;52989;48.796;9.806;2023-07-13T07:37:05;18.60;91.80
66184;DHT22;52989;48.796;9.806;2023-07-13T07:39:30;18.60;91.90
66184;DHT22;52989;48.796;9.806;2023-07-13T07:41:56;18.40;91.50
66184;DHT22;52989;48.796;9.806;2023-07-13T07:44:21;18.50;91.00
66184;DHT22;52989;48.796;9.806;2023-07-13T07:46:47;18.70;91.40
66184;DHT22;52989;48.796;9.806;2023-07-13T07:49:12;18.90;92.20
66184;DHT22;52989;48.796;9.806;2023-07-13T07:51:38;18.90;90.70
66184;DHT22;52989;48.796;9.806;2023-07-13T07:54:04;18.80;90.00
66184;DHT22;52989;48.796;9.806;2023-07-13T07:56:30;18.90;90.20
66184;DHT22;52989;48.796;9.806;2023-07-13T07:58:55;19.40;90.80
66184;DHT22;52989;48.796;9.806;2023-07-13T08:01:21;19.30;85.70
66184;DHT22;52989;48.796;9.806;2023-07-13T08:03:46;19.40;88.30
66184;DHT22;52989;48.796;9.806;2023-07-13T08:06:12;19.60;87.10
66184;DHT22;52989;48.796;9.806;2023-07-13T08:08:38;19.70;85.80
66184;DHT22;52989;48.796;9.806;2023-07-13T08:11:07;19.80;87.60
66184;DHT22;52989;48.796;9.806;2023-07-13T08:13:33;19.70;85.70
66184;DHT22;52989;48.796;9.806;2023-07-13T08:15:59;19.80;84.30
66184;DHT22;52989;48.796;9.806;2023-07-13T08:18:25;20.30;83.30
66184;DHT22;52989;48.796;9.806;2023-07-13T08:20:50;20.50;83.80
66184;DHT22;52989;48.796;9.806;2023-07-13T08:23:16;20.40;83.20
66184;DHT22;52989;48.796;9.806;2023-07-13T08:25:42;20.60;81.90
66184;DHT22;52989;48.796;9.806;2023-07-13T08:28:08;20.50;81.70
66184;DHT22;52989;48.796;9.806;2023-07-13T08:30:33;20.60;80.50
66184;DHT22;52989;48.796;9.806;2023-07-13T08:32:59;21.00;78.30
66184;DHT22;52989;48.796;9.806;2023-07-13T08:35:25;21.10;78.60
66184;DHT22;52989;48.796;9.806;2023-07-13T08:37:51;21.70;77.10
66184;DHT22;52989;48.796;9.806;2023-07-13T08:40:16;21.70;79.30
66184;DHT22;52989;48.796;9.806;2023-07-13T08:42:45;21.50;77.40
66184;DHT22;52989;48.796;9.806;2023-07-13T08:47:53;21.70;79.10
66184;DHT22;52989;48.796;9.806;2023-07-13T08:50:21;21.60;76.10
66184;DHT22;52989;48.796;9.806;2023-07-13T08:52:47;21.10;78.10
66184;DHT22;52989;48.796;9.806;2023-07-13T08:55:14;21.10;77.30
66184;DHT22;52989;48.796;9.806;2023-07-13T08:57:41;21.20;73.70
66184;DHT22;52989;48.796;9.806;2023-07-13T09:00:11;21.40;80.00
66184;DHT22;52989;48.796;9.806;2023-07-13T09:05:04;22.40;72.70
66184;DHT22;52989;48.796;9.806;2023-07-13T09:10:29;22.50;70.80
66184;DHT22;52989;48.796;9.806;2023-07-13T09:15:36;23.30;68.10
66184;DHT22;52989;48.796;9.806;2023-07-13T09:18:10;23.60;70.00
66184;DHT22;52989;48.796;9.806;2023-07-13T09:23:03;23.70;69.50
66184;DHT22;52989;48.796;9.806;2023-07-13T09:25:34;23.80;65.70
66184;DHT22;52989;48.796;9.806;2023-07-13T09:28:05;24.20;66.70
66184;DHT22;52989;48.796;9.806;2023-07-13T09:31:18;24.30;65.70
66184;DHT22;52989;48.796;9.806;2023-07-13T09:33:23;24.30;62.90
66184;DHT22;52989;48.796;9.806;2023-07-13T09:35:49;24.00;63.10
66184;DHT22;52989;48.796;9.806;2023-07-13T09:38:16;24.10;66.30
66184;DHT22;52989;48.796;9.806;2023-07-13T09:40:58;24.30;67.10
66184;DHT22;52989;48.796;9.806;2023-07-13T09:43:24;24.00;66.10
66184;DHT22;52989;48.796;9.806;2023-07-13T09:45:50;24.50;65.60
66184;DHT22;52989;48.796;9.806;2023-07-13T09:48:16;24.40;63.00
66184;DHT22;52989;48.796;9.806;2023-07-13T09:50:42;23.80;63.30
66184;DHT22;52989;48.796;9.806;2023-07-13T09:53:18;23.40;64.90
66184;DHT22;52989;48.796;9.806;2023-07-13T09:55:47;23.80;65.40
66184;DHT22;52989;48.796;9.806;2023-07-13T10:00:39;24.10;64.60
66184;DHT22;52989;48.796;9.806;2023-07-13T10:05:41;24.20;63.50
66184;DHT22;52989;48.796;9.806;2023-07-13T10:08:15;24.60;61.50
66184;DHT22;52989;48.796;9.806;2023-07-13T10:10:40;24.20;61.30
66184;DHT22;52989;48.796;9.806;2023-07-13T10:13:10;24.50;62.80
66184;DHT22;52989;48.796;9.806;2023-07-13T10:15:46;24.10;62.50
66184;DHT22;52989;48.796;9.806;2023-07-13T10:18:15;23.80;62.90
66184;DHT22;52989;48.796;9.806;2023-07-13T10:20:40;23.90;63.50
66184;DHT22;52989;48.796;9.806;2023-07-13T10:23:10;24.00;62.20
66184;DHT22;52989;48.796;9.806;2023-07-13T10:25:39;24.30;62.10
66184;DHT22;52989;48.796;9.806;2023-07-13T10:28:11;24.50;59.30
66184;DHT22;52989;48.796;9.806;2023-07-13T10:30:41;24.70;60.10
66184;DHT22;52989;48.796;9.806;2023-07-13T10:33:11;24.60;59.50
66184;DHT22;52989;48.796;9.806;2023-07-13T10:35:38;24.80;62.40
66184;DHT22;52989;48.796;9.806;2023-07-13T10:38:06;25.50;61.40
66184;DHT22;52989;48.796;9.806;2023-07-13T10:40:36;25.50;61.10
66184;DHT22;52989;48.796;9.806;2023-07-13T10:43:04;25.20;60.40
66184;DHT22;52989;48.796;9.806;2023-07-13T10:45:34;25.50;60.70
66184;DHT22;52989;48.796;9.806;2023-07-13T10:48:00;25.70;57.40
66184;DHT22;52989;48.796;9.806;2023-07-13T10:50:26;25.70;59.90
66184;DHT22;52989;48.796;9.806;2023-07-13T10:52:54;25.80;60.40
66184;DHT22;52989;48.796;9.806;2023-07-13T10:55:36;26.20;59.80
66184;DHT22;52989;48.796;9.806;2023-07-13T10:58:12;26.50;58.20
66184;DHT22;52989;48.796;9.806;2023-07-13T11:03:20;25.60;58.60
66184;DHT22;52989;48.796;9.806;2023-07-13T11:05:48;25.60;59.90
66184;DHT22;52989;48.796;9.806;2023-07-13T11:08:33;26.00;58.50
66184;DHT22;52989;48.796;9.806;2023-07-13T11:10:59;26.50;57.40
66184;DHT22;52989;48.796;9.806;2023-07-13T11:18:51;26.30;56.30
66184;DHT22;52989;48.796;9.806;2023-07-13T11:21:18;26.20;58.40
66184;DHT22;52989;48.796;9.806;2023-07-13T11:23:44;26.90;55.80
66184;DHT22;52989;48.796;9.806;2023-07-13T11:28:54;26.40;56.50
66184;DHT22;52989;48.796;9.806;2023-07-13T11:31:20;26.50;59.10
66184;DHT22;52989;48.796;9.806;2023-07-13T11:33:52;25.90;59.80
66184;DHT22;52989;48.796;9.806;2023-07-13T11:36:19;25.90;59.50
66184;DHT22;52989;48.796;9.806;2023-07-13T11:41:30;25.70;57.70
66184;DHT22;52989;48.796;9.806;2023-07-13T11:44:13;26.10;57.20
66184;DHT22;52989;48.796;9.806;2023-07-13T11:46:43;26.50;56.30
66184;DHT22;52989;48.796;9.806;2023-07-13T11:49:11;26.40;55.90
66184;DHT22;52989;48.796;9.806;2023-07-13T11:51:38;26.30;56.30
66184;DHT22;52989;48.796;9.806;2023-07-13T11:54:15;26.30;56.70
66184;DHT22;52989;48.796;9.806;2023-07-13T11:56:44;25.90;59.10
66184;DHT22;52989;48.796;9.806;2023-07-13T11:59:10;25.60;59.40
66184;DHT22;52989;48.796;9.806;2023-07-13T12:01:38;25.80;56.90
66184;DHT22;52989;48.796;9.806;2023-07-13T12:04:08;26.00;58.60
66184;DHT22;52989;48.796;9.806;2023-07-13T12:06:40;26.20;59.10
66184;DHT22;52989;48.796;9.806;2023-07-13T12:09:12;26.00;56.40
66184;DHT22;52989;48.796;9.806;2023-07-13T12:11:39;26.00;56.50
66184;DHT22;52989;48.796;9.806;2023-07-13T12:14:05;26.40;56.20
66184;DHT22;52989;48.796;9.806;2023-07-13T12:16:31;26.60;56.50
66184;DHT22;52989;48.796;9.806;2023-07-13T12:18:59;26.10;56.20
66184;DHT22;52989;48.796;9.806;2023-07-13T12:21:32;25.90;57.50
66184;DHT22;52989;48.796;9.806;2023-07-13T12:23:57;26.10;58.80
66184;DHT22;52989;48.796;9.806;2023-07-13T12:26:23;26.50;55.80
66184;DHT22;52989;48.796;9.806;2023-07-13T12:28:51;26.90;56.50
66184;DHT22;52989;48.796;9.806;2023-07-13T12:31:29;26.80;54.00
66184;DHT22;52989;48.796;9.806;2023-07-13T12:33:57;26.40;58.20
66184;DHT22;52989;48.796;9.806;2023-07-13T12:36:23;26.80;57.60
66184;DHT22;52989;48.796;9.806;2023-07-13T12:38:48;26.60;54.60
66184;DHT22;52989;48.796;9.806;2023-07-13T12:41:14;27.10;57.00
66184;DHT22;52989;48.796;9.806;2023-07-13T12:43:40;27.40;55.70
66184;DHT22;52989;48.796;9.806;2023-07-13T12:46:15;27.30;54.00
66184;DHT22;52989;48.796;9.806;2023-07-13T12:48:42;26.70;55.90
66184;DHT22;52989;48.796;9.806;2023-07-13T12:51:09;26.20;55.50
66184;DHT22;52989;48.796;9.806;2023-07-13T12:53:38;27.20;56.70
66184;DHT22;52989;48.796;9.806;2023-07-13T12:56:05;27.80;56.40
66184;DHT22;52989;48.796;9.806;2023-07-13T12:58:38;27.90;57.00
66184;DHT22;52989;48.796;9.806;2023-07-13T13:01:04;27.90;55.40
66184;DHT22;52989;48.796;9.806;2023-07-13T13:05:59;27.60;56.60
66184;DHT22;52989;48.796;9.806;2023-07-13T13:08:25;26.70;54.20
66184;DHT22;52989;48.796;9.806;2023-07-13T13:10:50;26.60;55.40
66184;DHT22;52989;48.796;9.806;2023-07-13T13:13:16;26.90;54.90
66184;DHT22;52989;48.796;9.806;2023-07-13T13:15:41;27.00;54.70
66184;DHT22;52989;48.796;9.806;2023-07-13T13:18:17;26.10;54.70
66184;DHT22;52989;48.796;9.806;2023-07-13T13:20:43;26.20;56.10
66184;DHT22;52989;48.796;9.806;2023-07-13T13:23:16;25.80;55.80
66184;DHT22;52989;48.796;9.806;2023-07-13T13:25:43;25.60;55.60
66184;DHT22;52989;48.796;9.806;2023-07-13T13:28:17;25.40;57.40
66184;DHT22;52989;48.796;9.806;2023-07-13T13:30:43;25.40;56.40
66184;DHT22;52989;48.796;9.806;2023-07-13T13:33:13;25.90;56.30
66184;DHT22;52989;48.796;9.806;2023-07-13T13:35:40;26.00;56.50
66184;DHT22;52989;48.796;9.806;2023-07-13T13:38:12;25.90;60.90
66184;DHT22;52989;48.796;9.806;2023-07-13T13:40:40;25.90;56.40
66184;DHT22;52989;48.796;9.806;2023-07-13T13:43:24;25.70;56.20
66184;DHT22;52989;48.796;9.806;2023-07-13T13:45:57;25.90;58.10
66184;DHT22;52989;48.796;9.806;2023-07-13T13:48:29;26.40;56.10
66184;DHT22;52989;48.796;9.806;2023-07-13T13:50:56;26.50;55.40
66184;DHT22;52989;48.796;9.806;2023-07-13T13:53:22;26.20;56.00
66184;DHT22;52989;48.796;9.806;2023-07-13T13:55:49;25.90;55.20
66184;DHT22;52989;48.796;9.806;2023-07-13T13:58:14;26.20;55.30
66184;DHT22;52989;48.796;9.806;2023-07-13T14:00:39;26.80;57.50
66184;DHT22;52989;48.796;9.806;2023-07-13T14:03:05;27.20;54.40
66184;DHT22;52989;48.796;9.806;2023-07-13T14:05:33;27.40;55.60
66184;DHT22;52989;48.796;9.806;2023-07-13T14:07:59;27.70;55.30
66184;DHT22;52989;48.796;9.806;2023-07-13T14:10:25;27.80;54.40
66184;DHT22;52989;48.796;9.806;2023-07-13T14:12:52;27.70;53.20
66184;DHT22;52989;48.796;9.806;2023-07-13T14:15:28;27.40;55.10
66184;DHT22;52989;48.796;9.806;2023-07-13T14:17:54;27.20;55.00
66184;DHT22;52989;48.796;9.806;2023-07-13T14:20:21;27.80;55.30
66184;DHT22;52989;48.796;9.806;2023-07-13T14:22:47;27.90;54.70
66184;DHT22;52989;48.796;9.806;2023-07-13T14:25:14;27.80;53.30
66184;DHT22;52989;48.796;9.806;2023-07-13T14:27:40;27.40;53.70
66184;DHT22;52989;48.796;9.806;2023-07-13T14:30:24;27.00;54.30
66184;DHT22;52989;48.796;9.806;2023-07-13T14:32:49;26.90;54.80
66184;DHT22;52989;48.796;9.806;2023-07-13T14:35:15;26.70;54.60
66184;DHT22;52989;48.796;9.806;2023-07-13T14:37:41;26.90;53.90
66184;DHT22;52989;48.796;9.806;2023-07-13T14:40:17;26.50;53.70
66184;DHT22;52989;48.796;9.806;2023-07-13T14:42:43;26.50;56.70
66184;DHT22;52989;48.796;9.806;2023-07-13T14:45:15;26.60;57.30
66184;DHT22;52989;48.796;9.806;2023-07-13T14:47:41;26.70;54.30
66184;DHT22;52989;48.796;9.806;2023-07-13T14:50:17;26.60;54.70
66184;DHT22;52989;48.796;9.806;2023-07-13T14:52:43;26.70;53.20
66184;DHT22;52989;48.796;9.806;2023-07-13T14:55:13;27.00;55.50
66184;DHT22;52989;48.796;9.806;2023-07-13T14:57:39;27.30;52.60
66184;DHT22;52989;48.796;9.806;2023-07-13T15:00:07;27.20;52.90
66184;DHT22;52989;48.796;9.806;2023-07-13T15:02:35;27.40;53.50
66184;DHT22;52989;48.796;9.806;2023-07-13T15:05:05;27.30;53.90
66184;DHT22;52989;48.796;9.806;2023-07-13T15:07:37;27.10;52.30
66184;DHT22;52989;48.796;9.806;2023-07-13T15:10:04;26.60;53.90
66184;DHT22;52989;48.796;9.806;2023-07-13T15:12:36;26.60;52.90
66184;DHT22;52989;48.796;9.806;2023-07-13T15:15:02;26.60;52.00
66184;DHT22;52989;48.796;9.806;2023-07-13T15:17:31;26.90;52.00
66184;DHT22;52989;48.796;9.806;2023-07-13T15:19:57;26.90;51.60
66184;DHT22;52989;48.796;9.806;2023-07-13T15:22:24;27.10;51.20
66184;DHT22;52989;48.796;9.806;2023-07-13T15:24:49;27.30;53.30
66184;DHT22;52989;48.796;9.806;2023-07-13T15:27:15;26.60;52.10
66184;DHT22;52989;48.796;9.806;2023-07-13T15:29:40;26.40;53.70
66184;DHT22;52989;48.796;9.806;2023-07-13T15:32:12;26.30;52.50
66184;DHT22;52989;48.796;9.806;2023-07-13T15:34:38;25.90;53.70
66184;DHT22;52989;48.796;9.806;2023-07-13T15:37:04;25.90;53.00
66184;DHT22;52989;48.796;9.806;2023-07-13T15:39:30;25.80;54.30
66184;DHT22;52989;48.796;9.806;2023-07-13T15:41:56;26.40;53.70
66184;DHT22;52989;48.796;9.806;2023-07-13T15:44:27;26.70;54.50
66184;DHT22;52989;48.796;9.806;2023-07-13T15:46:53;26.80;52.70
66184;DHT22;52989;48.796;9.806;2023-07-13T15:49:19;26.80;51.90
66184;DHT22;52989;48.796;9.806;2023-07-13T15:51:45;26.80;52.00
66184;DHT22;52989;48.796;9.806;2023-07-13T15:54:12;26.60;53.50
66184;DHT22;52989;48.796;9.806;2023-07-13T15:56:38;26.50;52.00
66184;DHT22;52989;48.796;9.806;2023-07-13T15:59:07;26.70;52.40
66184;DHT22;52989;48.796;9.806;2023-07-13T16:01:34;26.70;51.30
66184;DHT22;52989;48.796;9.806;2023-07-13T16:04:00;27.10;53.20
66184;DHT22;52989;48.796;9.806;2023-07-13T16:06:28;27.00;51.50
66184;DHT22;52989;48.796;9.806;2023-07-13T16:08:55;26.80;52.50